Time;durP1;ratioP1;P1;durP2;ratioP2;P2;SDS_P1;SDS_P2;PMS_P1;PMS_P2;Temp;Humidity;BMP_temperature;BMP_pressure;BME280_temperature;BME280_humidity;BME280_pressure;Samples;Min_cycle;Max_cycle;Signal;HPM_P1;HPM_P2
2021/10/20 00:02:08;;;;;;;20.57;8.23;;;8.20;99.90;;;;;;4444334;28;657284;-68
2021/10/20 00:04:57;;;;;;;14.93;7.90;;;8.20;99.90;;;;;;4415641;28;656607;-68
2021/10/20 00:07:46;;;;;;;14.93;7.43;;;8.30;99.90;;;;;;4446761;28;656038;-68
2021/10/20 00:10:33;;;;;;;14.43;7.30;;;8.30;99.90;;;;;;4450512;28;657487;-68
2021/10/20 00:13:21;;;;;;;19.37;10.00;;;8.40;99.90;;;;;;4427854;28;656740;-68
2021/10/20 00:16:08;;;;;;;16.10;7.20;;;8.40;99.90;;;;;;4446796;28;658949;-68
2021/10/20 00:18:56;;;;;;;12.53;6.43;;;8.40;99.90;;;;;;4419302;28;656549;-68
2021/10/20 00:21:45;;;;;;;12.07;6.70;;;8.50;99.90;;;;;;4440115;28;658096;-68
2021/10/20 00:24:32;;;;;;;19.13;8.87;;;8.50;96.10;;;;;;4416220;28;657698;-68
2021/10/20 00:27:21;;;;;;;13.60;7.23;;;8.60;79.90;;;;;;4429422;28;656244;-68
2021/10/20 00:30:09;;;;;;;16.17;7.47;;;8.70;65.20;;;;;;4447843;28;658050;-68
2021/10/20 00:32:57;;;;;;;19.80;7.33;;;8.70;56.10;;;;;;4423666;28;656564;-68
2021/10/20 00:35:44;;;;;;;15.63;7.80;;;8.70;59.50;;;;;;4444087;28;657323;-68
2021/10/20 00:38:33;;;;;;;19.73;7.77;;;8.70;52.40;;;;;;4419926;28;656425;-68
2021/10/20 00:41:21;;;;;;;15.80;6.77;;;8.70;55.20;;;;;;4419604;28;656600;-68
2021/10/20 00:44:08;;;;;;;15.60;7.70;;;8.70;71.60;;;;;;4445227;28;657205;-68
2021/10/20 00:46:56;;;;;;;13.07;7.87;;;8.70;72.00;;;;;;4416412;28;656086;-68
2021/10/20 00:49:44;;;;;;;16.67;8.73;;;8.70;73.00;;;;;;4438724;28;656520;-68
2021/10/20 00:52:31;;;;;;;18.00;8.43;;;8.70;57.60;;;;;;4424429;28;656582;-68
2021/10/20 00:55:20;;;;;;;22.57;8.40;;;8.70;51.00;;;;;;4438440;28;656859;-68
2021/10/20 00:58:08;;;;;;;19.67;8.57;;;8.70;49.40;;;;;;4410677;28;657385;-68
2021/10/20 01:00:55;;;;;;;18.97;9.10;;;8.70;39.70;;;;;;4422731;28;656666;-68
2021/10/20 01:03:43;;;;;;;17.80;8.67;;;8.70;39.30;;;;;;4440358;28;657684;-68
2021/10/20 01:06:31;;;;;;;17.23;8.30;;;8.70;33.40;;;;;;4420041;28;656931;-68
2021/10/20 01:09:18;;;;;;;16.43;8.20;;;8.70;32.80;;;;;;4441656;28;657742;-68
2021/10/20 01:12:07;;;;;;;18.90;8.97;;;8.80;31.50;;;;;;4416003;28;659263;-68
2021/10/20 01:14:55;;;;;;;16.30;7.63;;;8.80;29.30;;;;;;4437685;28;658446;-68
2021/10/20 01:17:43;;;;;;;13.90;7.37;;;8.80;24.20;;;;;;4439045;28;657916;-68
2021/10/20 01:20:31;;;;;;;16.40;8.27;;;8.80;12.20;;;;;;4419062;28;656449;-68
2021/10/20 01:23:20;;;;;;;14.70;7.57;;;8.90;6.30;;;;;;4433923;28;657718;-68
2021/10/20 01:26:08;;;;;;;14.90;7.27;;;8.90;8.90;;;;;;4411418;28;656602;-68
2021/10/20 01:28:55;;;;;;;14.97;7.27;;;8.90;9.60;;;;;;4424916;28;655335;-68
2021/10/20 01:31:46;;;;;;;13.97;7.27;;;8.90;15.50;;;;;;4434670;28;656693;-68
2021/10/20 01:34:34;;;;;;;14.47;6.40;;;8.90;17.00;;;;;;4409448;28;656879;-68
2021/10/20 01:37:22;;;;;;;15.90;6.57;;;9.00;10.80;;;;;;4423019;28;656336;-68
2021/10/20 01:40:12;;;;;;;10.53;5.67;;;9.00;3.10;;;;;;4432024;28;657185;-68
2021/10/20 01:42:59;;;;;;;11.80;5.30;;;9.10;1.00;;;;;;4417814;28;655293;-68
2021/10/20 01:45:47;;;;;;;12.43;6.63;;;9.10;1.00;;;;;;4419196;28;655528;-68
2021/10/20 01:48:34;;;;;;;14.03;6.33;;;9.20;1.00;;;;;;4437514;28;656231;-68
2021/10/20 01:51:22;;;;;;;10.10;5.90;;;9.20;1.00;;;;;;4416379;28;655583;-68
2021/10/20 01:54:09;;;;;;;13.30;5.80;;;9.20;1.00;;;;;;4439679;28;655148;-68
2021/10/20 01:56:58;;;;;;;14.37;6.10;;;9.20;1.00;;;;;;4416601;28;655570;-68
2021/10/20 01:59:46;;;;;;;11.17;6.20;;;9.20;1.00;;;;;;4421152;28;655868;-68
2021/10/20 02:02:33;;;;;;;12.13;6.07;;;9.20;1.00;;;;;;4440599;28;655328;-68
2021/10/20 02:05:21;;;;;;;11.87;5.87;;;9.20;1.00;;;;;;4417808;28;655735;-68
2021/10/20 02:08:08;;;;;;;12.13;6.30;;;9.10;1.00;;;;;;4446799;28;656616;-68
2021/10/20 02:10:56;;;;;;;10.67;5.90;;;9.10;1.00;;;;;;4417150;28;656231;-68
2021/10/20 02:13:45;;;;;;;14.63;6.67;;;9.20;1.00;;;;;;4439882;28;656555;-68
2021/10/20 02:16:32;;;;;;;9.53;4.90;;;9.20;1.00;;;;;;4415365;28;656641;-68
2021/10/20 02:19:20;;;;;;;17.67;6.23;;;9.20;1.00;;;;;;4436949;28;654505;-68
2021/10/20 02:22:07;;;;;;;8.10;4.70;;;9.40;1.00;;;;;;4415920;28;656584;-68
2021/10/20 02:24:55;;;;;;;10.87;4.80;;;9.60;1.00;;;;;;4437298;28;654840;-68
2021/10/20 02:27:43;;;;;;;8.33;4.93;;;9.80;99.90;;;;;;4439213;28;656576;-68
2021/10/20 02:30:32;;;;;;;12.73;5.20;;;10.00;99.90;;;;;;4418708;28;655245;-68
2021/10/20 02:33:19;;;;;;;10.50;5.40;;;10.20;99.90;;;;;;4441694;28;657413;-68
2021/10/20 02:36:07;;;;;;;12.57;5.90;;;10.40;99.90;;;;;;4415077;28;658153;-68
2021/10/20 02:38:54;;;;;;;8.97;5.60;;;10.50;99.90;;;;;;4436825;28;659391;-68
2021/10/20 02:41:42;;;;;;;12.37;6.37;;;10.60;99.90;;;;;;4416668;28;657054;-68
2021/10/20 02:44:29;;;;;;;14.10;6.37;;;10.60;99.90;;;;;;4434972;28;657908;-68
2021/10/20 02:47:18;;;;;;;14.47;7.47;;;10.70;99.90;;;;;;4415984;28;657636;-67
2021/10/20 02:50:06;;;;;;;14.83;8.63;;;10.70;99.90;;;;;;4419211;28;657530;-68
2021/10/20 02:52:54;;;;;;;19.70;9.17;;;10.70;99.90;;;;;;4440074;28;657911;-68
2021/10/20 02:55:41;;;;;;;15.20;8.53;;;10.70;99.90;;;;;;4421476;28;657523;-68
2021/10/20 02:58:29;;;;;;;20.87;11.10;;;10.70;99.90;;;;;;4442404;28;658849;-68
2021/10/20 03:01:17;;;;;;;23.88;10.93;;;10.70;99.90;;;;;;4419397;28;659251;-68
2021/10/20 03:04:06;;;;;;;19.10;11.57;;;10.70;99.90;;;;;;4440674;28;658457;-68
2021/10/20 03:06:53;;;;;;;20.93;12.57;;;10.70;99.90;;;;;;4415797;28;659009;-68
2021/10/20 03:09:41;;;;;;;21.60;10.97;;;10.70;99.90;;;;;;4419173;28;659297;-68
2021/10/20 03:12:28;;;;;;;18.73;10.23;;;10.70;99.90;;;;;;4443067;28;659511;-68
2021/10/20 03:15:16;;;;;;;20.80;10.67;;;10.70;99.90;;;;;;4419623;28;658836;-68
2021/10/20 03:18:03;;;;;;;20.17;10.87;;;10.70;99.90;;;;;;4439747;28;658933;-68
2021/10/20 03:20:52;;;;;;;19.87;11.63;;;10.70;99.90;;;;;;4421038;28;658717;-68
2021/10/20 03:23:40;;;;;;;22.00;10.47;;;10.70;99.90;;;;;;4433691;28;659464;-68
2021/10/20 03:26:28;;;;;;;19.23;10.07;;;10.70;99.90;;;;;;4439981;28;659388;-68
2021/10/20 03:29:15;;;;;;;16.85;8.98;;;10.70;99.90;;;;;;4421312;28;658933;-68
2021/10/20 03:32:03;;;;;;;15.13;8.60;;;10.70;99.90;;;;;;4438034;28;658447;-68
2021/10/20 03:34:51;;;;;;;15.10;9.07;;;10.70;99.90;;;;;;4413993;28;657622;-68
2021/10/20 03:37:40;;;;;;;15.43;8.47;;;10.70;99.90;;;;;;4434854;28;659427;-68
2021/10/20 03:40:27;;;;;;;14.43;8.40;;;10.70;99.90;;;;;;4415500;28;658804;-68
2021/10/20 03:43:15;;;;;;;14.87;8.20;;;10.70;99.90;;;;;;4428789;28;657605;-68
2021/10/20 03:46:03;;;;;;;16.20;8.20;;;10.80;99.90;;;;;;4439576;28;657759;-68
2021/10/20 03:48:52;;;;;;;15.50;9.00;;;10.80;99.90;;;;;;4416102;28;657603;-68
2021/10/20 03:51:39;;;;;;;16.03;8.33;;;10.80;99.90;;;;;;4435126;28;657198;-68
2021/10/20 03:54:28;;;;;;;18.30;9.87;;;10.80;99.90;;;;;;4415663;28;658369;-68
2021/10/20 03:57:16;;;;;;;18.23;9.63;;;10.80;99.90;;;;;;4421284;28;658774;-68
2021/10/20 04:00:06;;;;;;;17.27;9.63;;;10.80;99.90;;;;;;4433937;28;658452;-68
2021/10/20 04:02:53;;;;;;;14.03;8.50;;;10.80;99.90;;;;;;4416040;28;658594;-68
2021/10/20 04:05:41;;;;;;;14.90;8.60;;;10.80;99.90;;;;;;4422311;28;657366;-68
2021/10/20 04:08:28;;;;;;;13.55;7.90;;;10.80;99.90;;;;;;4432934;28;658574;-68
2021/10/20 04:11:18;;;;;;;13.17;7.83;;;10.80;99.90;;;;;;4414624;28;657648;-68
2021/10/20 04:14:06;;;;;;;12.85;8.00;;;10.90;99.90;;;;;;4420379;28;657707;-68
2021/10/20 04:16:53;;;;;;;16.03;8.47;;;10.90;99.90;;;;;;4437401;28;657819;-68
2021/10/20 04:19:41;;;;;;;16.77;9.17;;;10.90;99.90;;;;;;4417234;28;658015;-68
2021/10/20 04:22:28;;;;;;;16.00;9.50;;;11.00;99.90;;;;;;4434878;28;658373;-68
2021/10/20 04:25:16;;;;;;;20.17;10.40;;;11.00;99.90;;;;;;4418674;28;657217;-68
2021/10/20 04:28:05;;;;;;;19.13;9.43;;;11.10;99.90;;;;;;4438475;28;659901;-68
2021/10/20 04:30:53;;;;;;;15.90;9.47;;;11.10;99.90;;;;;;4414554;28;658299;-68
2021/10/20 04:33:41;;;;;;;16.93;9.30;;;11.10;99.90;;;;;;4415708;28;657869;-68
2021/10/20 04:36:28;;;;;;;15.43;9.50;;;11.20;99.90;;;;;;4436639;28;659056;-68
2021/10/20 04:39:16;;;;;;;16.13;9.53;;;11.20;99.90;;;;;;4415069;28;657500;-68
2021/10/20 04:42:04;;;;;;;21.33;10.87;;;11.20;99.90;;;;;;4433428;28;658749;-68
2021/10/20 04:44:53;;;;;;;17.87;10.23;;;11.20;99.90;;;;;;4413679;28;658899;-68
2021/10/20 04:47:47;;;;;;;17.77;10.17;;;11.20;99.90;;;;;;4418644;28;658517;-68
2021/10/20 04:50:34;;;;;;;17.77;10.13;;;11.20;99.90;;;;;;4409876;28;659577;-68
2021/10/20 04:53:22;;;;;;;24.53;10.50;;;11.30;99.90;;;;;;4416666;28;658730;-68
2021/10/20 04:56:09;;;;;;;18.33;10.33;;;11.30;99.90;;;;;;4431814;28;658866;-67
2021/10/20 04:58:57;;;;;;;15.37;9.90;;;11.30;99.90;;;;;;4415471;28;659806;-68
2021/10/20 05:01:46;;;;;;;20.08;10.20;;;11.30;99.90;;;;;;4433979;28;657551;-68
2021/10/20 05:04:33;;;;;;;15.95;9.60;;;11.40;99.90;;;;;;4408893;28;659409;-68
2021/10/20 05:07:21;;;;;;;17.93;9.87;;;11.30;99.90;;;;;;4415841;28;657485;-68
2021/10/20 05:10:46;;;;;;;19.57;10.20;;;11.40;99.90;;;;;;4432481;28;658131;-67
2021/10/20 05:13:33;;;;;;;16.00;10.07;;;11.40;99.90;;;;;;4405242;28;658792;-68
2021/10/20 05:16:21;;;;;;;18.27;9.97;;;11.40;99.90;;;;;;4416770;28;659583;-68
2021/10/20 05:19:10;;;;;;;18.30;10.80;;;11.40;99.90;;;;;;4445668;28;658408;-68
2021/10/20 05:21:57;;;;;;;14.83;8.07;;;11.40;99.90;;;;;;4419714;28;660589;-68
2021/10/20 05:24:45;;;;;;;11.30;6.93;;;11.40;99.90;;;;;;4441316;28;658107;-68
2021/10/20 05:27:33;;;;;;;13.43;8.43;;;11.50;99.90;;;;;;4416424;28;659055;-67
2021/10/20 05:30:20;;;;;;;11.60;7.43;;;11.50;99.90;;;;;;4433617;28;657209;-67
2021/10/20 05:33:08;;;;;;;13.67;8.00;;;11.60;99.90;;;;;;4438876;28;658400;-67
2021/10/20 05:35:57;;;;;;;14.40;8.17;;;11.60;99.90;;;;;;4420961;28;659098;-68
2021/10/20 05:38:46;;;;;;;19.03;9.17;;;11.60;99.90;;;;;;4432232;28;657494;-67
2021/10/20 05:41:34;;;;;;;16.27;9.60;;;11.70;99.90;;;;;;4408466;28;658582;-68
2021/10/20 05:44:22;;;;;;;14.93;10.50;;;11.80;99.90;;;;;;4417532;28;657634;-68
2021/10/20 05:47:09;;;;;;;19.70;10.77;;;11.80;99.90;;;;;;4437800;28;658977;-67
2021/10/20 05:49:57;;;;;;;15.20;9.50;;;11.80;99.90;;;;;;4412579;28;659054;-67
2021/10/20 05:52:46;;;;;;;16.92;9.35;;;11.80;99.90;;;;;;4432897;28;657506;-68
2021/10/20 05:55:34;;;;;;;14.30;8.20;;;11.90;99.90;;;;;;4411652;28;659306;-67
2021/10/20 05:58:21;;;;;;;14.60;8.68;;;11.90;99.90;;;;;;4416499;28;657619;-67
2021/10/20 06:01:10;;;;;;;16.10;8.67;;;12.00;99.90;;;;;;4438553;28;658076;-68
2021/10/20 06:03:58;;;;;;;14.47;7.73;;;12.00;99.90;;;;;;4417379;28;658476;-68
2021/10/20 06:06:46;;;;;;;13.00;8.00;;;12.10;99.90;;;;;;4423422;28;657608;-68
2021/10/20 06:09:35;;;;;;;13.33;8.47;;;12.20;99.90;;;;;;4441932;28;658590;-68
2021/10/20 06:12:22;;;;;;;14.03;8.23;;;12.20;99.90;;;;;;4417316;28;659265;-67
2021/10/20 06:15:11;;;;;;;17.37;9.37;;;12.30;99.90;;;;;;4441916;28;657469;-68
2021/10/20 06:17:58;;;;;;;17.03;8.80;;;12.30;99.90;;;;;;4441138;28;658143;-67
2021/10/20 06:20:46;;;;;;;17.53;9.83;;;12.40;99.90;;;;;;4421070;28;658188;-68
2021/10/20 06:23:34;;;;;;;16.90;9.67;;;12.50;99.90;;;;;;4431757;28;659000;-67
2021/10/20 06:26:23;;;;;;;18.47;9.73;;;12.50;99.90;;;;;;4414900;28;657450;-68
2021/10/20 06:29:11;;;;;;;16.13;8.63;;;12.60;99.90;;;;;;4415965;28;657970;-68
2021/10/20 06:31:58;;;;;;;14.03;8.73;;;12.70;99.90;;;;;;4435525;28;658981;-67
2021/10/20 06:34:46;;;;;;;17.90;9.40;;;12.70;99.90;;;;;;4412080;28;658173;-68
2021/10/20 06:37:33;;;;;;;18.60;9.43;;;12.80;99.90;;;;;;4436716;28;658302;-67
2021/10/20 06:40:21;;;;;;;15.00;8.17;;;12.90;99.90;;;;;;4417348;28;657538;-68
2021/10/20 06:43:10;;;;;;;15.23;8.33;;;12.90;99.90;;;;;;4434009;28;657841;-68
2021/10/20 06:46:02;;;;;;;12.57;6.90;;;12.90;99.90;;;;;;4410927;28;658075;-68
2021/10/20 06:48:49;;;;;;;12.60;7.53;;;13.10;99.90;;;;;;4407439;28;657624;-67
2021/10/20 06:51:37;;;;;;;17.33;7.53;;;13.20;99.90;;;;;;4419636;28;657929;-68
2021/10/20 06:54:25;;;;;;;13.40;6.83;;;13.20;99.90;;;;;;4439437;28;657719;-68
2021/10/20 06:57:13;;;;;;;14.07;6.90;;;13.30;99.90;;;;;;4417687;28;658370;-68
2021/10/20 07:00:02;;;;;;;12.50;7.03;;;13.30;99.90;;;;;;4430257;28;657611;-68
2021/10/20 07:02:50;;;;;;;14.17;6.77;;;13.40;99.90;;;;;;4439845;28;657949;-68
2021/10/20 07:05:37;;;;;;;13.00;6.97;;;13.50;99.90;;;;;;4416268;28;658839;-68
2021/10/20 07:08:26;;;;;;;14.20;7.40;;;13.60;99.90;;;;;;4432135;28;657447;-68
2021/10/20 07:11:14;;;;;;;13.10;6.50;;;13.70;99.90;;;;;;4435302;28;659159;-68
2021/10/20 07:14:02;;;;;;;11.53;6.50;;;13.80;99.90;;;;;;4421944;28;657497;-67
2021/10/20 07:16:50;;;;;;;10.40;6.03;;;13.80;99.90;;;;;;4453438;28;657293;-67
2021/10/20 07:19:38;;;;;;;10.53;5.27;;;13.90;99.90;;;;;;4420146;28;658739;-67
2021/10/20 07:22:27;;;;;;;9.90;5.27;;;14.00;99.90;;;;;;4414185;28;658981;-68
2021/10/20 07:25:15;;;;;;;8.93;5.27;;;14.00;99.90;;;;;;4437614;28;656895;-68
2021/10/20 07:28:03;;;;;;;9.73;5.13;;;14.10;99.90;;;;;;4414927;28;657749;-67
2021/10/20 07:30:51;;;;;;;10.40;5.33;;;14.10;99.90;;;;;;4420895;28;656634;-68
2021/10/20 07:33:40;;;;;;;9.10;5.47;;;14.30;99.90;;;;;;4438538;28;658835;-68
2021/10/20 07:36:28;;;;;;;9.20;5.00;;;14.40;99.90;;;;;;4416205;28;658146;-68
2021/10/20 07:39:16;;;;;;;6.30;4.33;;;14.50;99.90;;;;;;4425422;28;656448;-68
2021/10/20 07:42:03;;;;;;;9.90;4.97;;;14.70;99.90;;;;;;4444660;28;657304;-68
2021/10/20 07:44:51;;;;;;;7.43;4.57;;;15.00;99.90;;;;;;4419512;28;656691;-68
2021/10/20 07:47:38;;;;;;;11.17;4.73;;;15.00;99.90;;;;;;4462418;28;657145;-68
2021/10/20 07:50:27;;;;;;;10.07;4.73;;;15.10;99.90;;;;;;4417558;28;657639;-68
2021/10/20 07:53:16;;;;;;;11.00;4.53;;;15.20;99.90;;;;;;4427787;28;657795;-68
2021/10/20 07:56:03;;;;;;;11.10;5.60;;;15.20;99.90;;;;;;4437770;28;658463;-68
2021/10/20 07:58:51;;;;;;;8.60;5.03;;;15.30;99.90;;;;;;4420249;28;657216;-68
2021/10/20 08:01:39;;;;;;;8.90;4.70;;;15.30;99.90;;;;;;4438461;28;656913;-74
2021/10/20 08:04:26;;;;;;;9.63;5.20;;;15.20;99.90;;;;;;4419051;28;657468;-74
2021/10/20 08:07:15;;;;;;;8.57;4.83;;;15.30;99.90;;;;;;4442510;28;657696;-74
2021/10/20 08:10:03;;;;;;;10.83;4.90;;;15.30;99.90;;;;;;4417729;28;656566;-74
2021/10/20 08:12:51;;;;;;;9.97;5.17;;;15.30;99.90;;;;;;4414481;28;657809;-75
2021/10/20 08:15:39;;;;;;;11.43;5.13;;;15.40;99.90;;;;;;4446109;28;656957;-73
2021/10/20 08:18:26;;;;;;;9.63;5.27;;;15.40;99.90;;;;;;4424483;28;658247;-73
2021/10/20 08:21:14;;;;;;;10.73;5.30;;;15.60;99.90;;;;;;4440913;28;658583;-74
2021/10/20 08:24:03;;;;;;;10.73;5.73;;;15.60;99.90;;;;;;4419373;28;657899;-74
2021/10/20 08:26:51;;;;;;;16.17;6.40;;;15.60;99.90;;;;;;4421064;28;657981;-74
2021/10/20 08:29:38;;;;;;;12.40;5.27;;;15.80;99.90;;;;;;4444347;28;658166;-73
2021/10/20 08:32:26;;;;;;;10.00;6.20;;;15.70;99.90;;;;;;4414600;28;658596;-74
2021/10/20 08:35:16;;;;;;;12.83;5.43;;;15.80;99.90;;;;;;4445080;28;658405;-74
2021/10/20 08:38:04;;;;;;;12.47;5.93;;;15.80;99.90;;;;;;4416311;28;658372;-73
2021/10/20 08:40:55;;;;;;;13.33;6.13;;;15.90;99.90;;;;;;4417927;28;657864;-74
2021/10/20 08:43:43;;;;;;;9.30;5.77;;;16.00;99.90;;;;;;4418272;28;657989;-74
2021/10/20 08:46:31;;;;;;;8.37;5.30;;;16.00;99.90;;;;;;4421810;28;657030;-74
2021/10/20 08:49:19;;;;;;;9.87;5.23;;;16.10;99.90;;;;;;4440903;28;656449;-73
2021/10/20 08:52:09;;;;;;;9.80;4.87;;;16.10;99.90;;;;;;4420628;28;656521;-74
2021/10/20 08:54:57;;;;;;;14.07;5.40;;;16.20;99.90;;;;;;4421110;28;656842;-74
2021/10/20 08:57:46;;;;;;;9.73;5.63;;;16.30;99.90;;;;;;4441262;28;657616;-74
2021/10/20 09:00:34;;;;;;;10.60;5.40;;;16.40;99.90;;;;;;4419593;28;656649;-73
2021/10/20 09:03:22;;;;;;;11.30;5.33;;;16.50;99.90;;;;;;4413865;28;658013;-73
2021/10/20 09:06:10;;;;;;;10.90;5.43;;;16.40;99.90;;;;;;4436702;28;658115;-74
2021/10/20 09:08:58;;;;;;;10.80;4.73;;;16.50;99.90;;;;;;4416875;28;658159;-74
2021/10/20 09:11:46;;;;;;;13.50;6.20;;;16.60;99.90;;;;;;4423204;28;658097;-75
2021/10/20 09:14:35;;;;;;;9.83;4.70;;;16.60;99.90;;;;;;4443989;28;657902;-73
2021/10/20 09:17:22;;;;;;;11.47;4.90;;;16.60;99.90;;;;;;4414396;28;658293;-74
2021/10/20 09:20:23;;;;;;;12.33;6.63;;;16.60;99.90;;;;;;4437941;28;657399;-74
2021/10/20 09:23:11;;;;;;;10.70;5.13;;;16.60;99.90;;;;;;4400225;28;657502;-74
2021/10/20 09:26:00;;;;;;;7.73;4.50;;;16.70;99.90;;;;;;4433738;28;658013;-72
2021/10/20 09:28:47;;;;;;;9.67;4.93;;;16.70;99.90;;;;;;4415981;28;657701;-73
2021/10/20 09:31:36;;;;;;;9.50;5.10;;;16.80;99.90;;;;;;4439799;28;656339;-73
2021/10/20 09:34:24;;;;;;;9.10;4.90;;;17.00;99.90;;;;;;4421478;28;657771;-73
2021/10/20 09:37:11;;;;;;;8.53;5.63;;;17.30;99.90;;;;;;4417518;28;657031;-74
2021/10/20 09:40:04;;;;;;;10.67;5.43;;;17.60;99.90;;;;;;4432845;28;656941;-73
2021/10/20 09:42:53;;;;;;;12.87;7.03;;;17.70;99.90;;;;;;4394321;28;657568;-74
2021/10/20 09:45:43;;;;;;;10.27;6.07;;;17.90;99.90;;;;;;4418544;28;658045;-73
2021/10/20 09:48:32;;;;;;;12.63;5.72;;;17.90;99.90;;;;;;4419589;28;657852;-74
2021/10/20 09:51:20;;;;;;;10.50;5.30;;;17.90;99.90;;;;;;4441138;28;657857;-74
2021/10/20 09:54:23;;;;;;;12.17;5.60;;;18.00;99.90;;;;;;4414622;28;658397;-73
2021/10/20 09:57:12;;;;;;;9.30;5.53;;;18.00;99.90;;;;;;4390328;28;658064;-74
2021/10/20 09:59:59;;;;;;;10.60;5.27;;;18.30;99.90;;;;;;4439482;28;656935;-73
2021/10/20 10:02:47;;;;;;;9.00;4.87;;;18.60;99.90;;;;;;4420515;28;657597;-74
2021/10/20 10:05:37;;;;;;;13.97;5.00;;;19.00;99.90;;;;;;4436291;28;656473;-74
2021/10/20 10:08:25;;;;;;;15.87;5.60;;;19.50;99.90;;;;;;4438703;28;657374;-73
2021/10/20 10:11:13;;;;;;;7.00;4.50;;;19.90;99.90;;;;;;4415216;28;658617;-74
2021/10/20 10:14:02;;;;;;;8.77;4.10;;;20.40;99.90;;;;;;4423489;28;656901;-74
2021/10/20 10:16:53;;;;;;;6.80;3.90;;;20.40;99.90;;;;;;4437301;28;657072;-73
2021/10/20 10:19:41;;;;;;;6.67;3.60;;;20.40;99.90;;;;;;4401435;28;657659;-74
2021/10/20 10:22:30;;;;;;;9.50;3.87;;;20.40;99.90;;;;;;4442077;28;656696;-72
2021/10/20 10:25:17;;;;;;;8.47;3.37;;;20.10;99.90;;;;;;4418709;28;657129;-73
2021/10/20 10:28:07;;;;;;;6.20;3.83;;;20.30;99.90;;;;;;4433502;28;657136;-74
2021/10/20 10:30:57;;;;;;;8.57;3.83;;;20.50;99.90;;;;;;4432990;28;656070;-74
2021/10/20 10:33:52;;;;;;;6.73;3.23;;;20.60;99.90;;;;;;4438702;28;656433;-74
2021/10/20 10:36:53;;;;;;;7.73;3.47;;;20.50;99.90;;;;;;4419174;28;657261;-73
2021/10/20 10:39:47;;;;;;;7.13;3.47;;;20.50;99.90;;;;;;4401062;28;657063;-74
2021/10/20 10:42:36;;;;;;;8.63;3.88;;;20.60;99.90;;;;;;4419269;28;656574;-73
2021/10/20 10:45:23;;;;;;;5.77;3.20;;;20.60;99.90;;;;;;4416568;28;656916;-72
2021/10/20 10:48:11;;;;;;;8.27;3.33;;;20.70;99.90;;;;;;4423880;28;656966;-74
2021/10/20 10:50:59;;;;;;;7.57;3.70;;;20.90;99.90;;;;;;4438664;28;657421;-72
2021/10/20 10:53:52;;;;;;;5.60;3.33;;;20.90;99.90;;;;;;4418830;28;656328;-73
2021/10/20 10:56:41;;;;;;;5.67;3.80;;;21.00;99.90;;;;;;4418569;28;656751;-73
2021/10/20 10:59:29;;;;;;;5.97;3.27;;;21.20;99.90;;;;;;4415202;28;656827;-73
2021/10/20 11:02:38;;;;;;;4.87;2.73;;;21.40;99.90;;;;;;4418293;28;656955;-72
2021/10/20 11:05:27;;;;;;;5.40;3.00;;;21.10;99.90;;;;;;4400585;28;656826;-74
2021/10/20 11:08:14;;;;;;;4.57;2.70;;;20.70;99.90;;;;;;4436378;28;657748;-72
2021/10/20 11:11:04;;;;;;;4.80;3.37;;;20.50;99.90;;;;;;4420071;28;657386;-74
2021/10/20 11:13:53;;;;;;;5.73;3.30;;;20.70;99.90;;;;;;4421037;28;656579;-74
2021/10/20 11:16:40;;;;;;;5.50;2.77;;;21.40;99.90;;;;;;4424683;28;656496;-75
2021/10/20 11:19:28;;;;;;;4.43;2.77;;;21.70;99.90;;;;;;4439472;28;658438;-73
2021/10/20 11:22:17;;;;;;;3.43;2.03;;;21.80;99.90;;;;;;4423781;28;659077;-72
2021/10/20 11:25:06;;;;;;;3.93;2.50;;;21.60;99.90;;;;;;4439197;28;656559;-72
2021/10/20 11:27:55;;;;;;;5.77;2.80;;;21.40;99.90;;;;;;4418308;28;656704;-73
2021/10/20 11:30:44;;;;;;;4.87;2.93;;;21.30;99.90;;;;;;4422521;28;657789;-73
2021/10/20 11:33:32;;;;;;;7.53;3.17;;;21.20;99.90;;;;;;4419136;28;656593;-73
2021/10/20 11:36:20;;;;;;;9.50;2.90;;;21.40;99.90;;;;;;4439215;28;656430;-72
2021/10/20 11:39:09;;;;;;;4.80;2.97;;;21.60;99.90;;;;;;4416738;28;657317;-72
2021/10/20 11:41:57;;;;;;;4.17;2.77;;;21.80;99.30;;;;;;4417759;28;657576;-73
2021/10/20 11:44:45;;;;;;;8.33;3.20;;;21.70;99.90;;;;;;4447333;28;656277;-74
2021/10/20 11:47:35;;;;;;;5.40;2.80;;;21.80;97.30;;;;;;4420721;28;658204;-73
2021/10/20 11:50:23;;;;;;;7.50;2.67;;;21.70;97.60;;;;;;4418917;28;657355;-72
2021/10/20 11:53:11;;;;;;;7.17;3.33;;;21.40;97.50;;;;;;4419985;28;656819;-75
2021/10/20 11:56:00;;;;;;;6.40;2.93;;;21.50;97.80;;;;;;4444945;28;657292;-73
2021/10/20 11:58:48;;;;;;;5.27;3.10;;;21.80;97.60;;;;;;4423371;28;657870;-74
2021/10/20 12:01:36;;;;;;;5.37;3.30;;;22.30;99.00;;;;;;4422070;28;656289;-75
2021/10/20 12:04:25;;;;;;;6.27;2.90;;;22.50;95.60;;;;;;4442227;28;657248;-73
2021/10/20 12:07:15;;;;;;;9.73;3.23;;;23.00;94.90;;;;;;4415223;28;657146;-74
2021/10/20 12:10:04;;;;;;;6.73;3.57;;;23.00;94.30;;;;;;4418366;28;657770;-73
2021/10/20 12:12:52;;;;;;;8.23;4.07;;;23.20;94.20;;;;;;4419917;28;656664;-74
2021/10/20 12:15:41;;;;;;;8.15;3.33;;;23.60;94.00;;;;;;4441722;28;656658;-72
2021/10/20 12:18:30;;;;;;;6.07;2.95;;;23.70;91.80;;;;;;4415855;28;656476;-73
2021/10/20 12:21:19;;;;;;;7.50;3.72;;;24.30;91.40;;;;;;4415902;28;657174;-73
2021/10/20 12:24:07;;;;;;;5.53;2.97;;;25.10;85.70;;;;;;4420205;28;656882;-73
2021/10/20 12:26:55;;;;;;;6.50;3.28;;;25.00;82.00;;;;;;4440550;28;657114;-72
2021/10/20 12:29:45;;;;;;;9.60;3.78;;;25.00;79.90;;;;;;4416658;28;656510;-74
2021/10/20 12:32:35;;;;;;;5.57;3.70;;;25.60;78.10;;;;;;4417684;28;657260;-72
2021/10/20 12:35:23;;;;;;;6.88;3.22;;;25.70;76.80;;;;;;4422293;28;657069;-73
2021/10/20 12:38:12;;;;;;;7.10;3.35;;;25.90;74.60;;;;;;4438775;28;656469;-74
2021/10/20 12:41:07;;;;;;;7.45;3.50;;;26.40;74.00;;;;;;4446144;28;656664;-74
2021/10/20 12:43:55;;;;;;;6.78;3.78;;;26.50;69.90;;;;;;4415105;28;657248;-73
2021/10/20 12:46:43;;;;;;;5.43;3.35;;;27.00;70.50;;;;;;4419050;28;657559;-73
2021/10/20 12:49:35;;;;;;;12.80;4.28;;;27.90;65.30;;;;;;4422375;28;657393;-74
2021/10/20 12:52:25;;;;;;;9.95;3.35;;;28.20;63.70;;;;;;4414787;28;658457;-74
2021/10/20 12:55:15;;;;;;;9.15;3.97;;;28.00;61.20;;;;;;4421232;28;657343;-74
2021/10/20 12:58:03;;;;;;;5.88;3.40;;;28.90;62.90;;;;;;4417655;28;656994;-73
2021/10/20 13:00:51;;;;;;;6.63;3.45;;;29.50;58.20;;;;;;4418896;28;656867;-74
2021/10/20 13:03:38;;;;;;;6.05;3.33;;;28.90;56.90;;;;;;4441024;28;657162;-73
2021/10/20 13:06:26;;;;;;;7.25;4.28;;;28.80;57.50;;;;;;4419453;28;656588;-75
2021/10/20 13:09:15;;;;;;;4.88;3.25;;;28.10;57.80;;;;;;4435033;28;656807;-74
2021/10/20 13:12:05;;;;;;;8.32;3.38;;;27.30;58.60;;;;;;4420106;28;657513;-73
2021/10/20 13:14:52;;;;;;;4.63;3.13;;;26.50;60.40;;;;;;4416915;28;657784;-74
2021/10/20 13:17:40;;;;;;;11.32;3.33;;;25.50;62.50;;;;;;4438019;28;656461;-74
2021/10/20 13:20:28;;;;;;;5.35;3.30;;;25.10;64.00;;;;;;4412815;28;658141;-73
2021/10/20 13:23:15;;;;;;;5.93;3.40;;;24.90;64.50;;;;;;4420128;28;656599;-74
2021/10/20 13:26:04;;;;;;;5.30;3.35;;;24.90;64.10;;;;;;4444974;28;657620;-73
2021/10/20 13:28:53;;;;;;;4.97;3.08;;;25.10;63.80;;;;;;4420727;28;656374;-74
2021/10/20 13:31:41;;;;;;;8.45;3.70;;;25.40;63.60;;;;;;4426797;28;660207;-74
2021/10/20 13:34:28;;;;;;;5.97;3.53;;;25.40;62.90;;;;;;4426507;28;656959;-73
2021/10/20 13:37:16;;;;;;;6.80;3.50;;;25.50;63.20;;;;;;4423432;28;657731;-74
2021/10/20 13:40:04;;;;;;;7.40;3.35;;;25.50;63.10;;;;;;4440853;28;657270;-74
2021/10/20 13:42:52;;;;;;;7.65;3.67;;;25.20;62.50;;;;;;4421789;28;656320;-74
2021/10/20 13:45:41;;;;;;;8.80;3.78;;;24.90;63.70;;;;;;4445292;28;657503;-73
2021/10/20 13:48:29;;;;;;;8.23;3.10;;;24.80;66.00;;;;;;4414508;28;657100;-75
2021/10/20 13:51:16;;;;;;;6.03;3.38;;;24.50;64.80;;;;;;4419015;28;656815;-74
2021/10/20 13:54:04;;;;;;;6.43;3.00;;;24.60;67.10;;;;;;4438862;28;656648;-74
2021/10/20 13:56:52;;;;;;;4.32;2.60;;;24.60;66.80;;;;;;4418827;28;656736;-73
2021/10/20 13:59:39;;;;;;;8.43;2.67;;;24.20;62.00;;;;;;4437162;28;656601;-74
2021/10/20 14:02:28;;;;;;;6.57;2.78;;;23.90;63.40;;;;;;4418371;28;656406;-74
2021/10/20 14:05:16;;;;;;;4.63;3.15;;;24.40;62.50;;;;;;4416598;28;657115;-75
2021/10/20 14:08:04;;;;;;;7.63;2.97;;;25.10;62.10;;;;;;4438617;28;657612;-75
2021/10/20 14:10:51;;;;;;;4.85;2.90;;;26.10;59.60;;;;;;4419061;28;656930;-74
2021/10/20 14:13:39;;;;;;;6.20;2.92;;;26.80;56.70;;;;;;4436147;28;656408;-75
2021/10/20 14:16:27;;;;;;;5.65;2.47;;;26.80;55.80;;;;;;4419754;28;656820;-74
2021/10/20 14:19:16;;;;;;;8.23;3.65;;;26.60;55.40;;;;;;4442845;28;656728;-75
2021/10/20 14:22:03;;;;;;;9.88;2.50;;;27.70;55.10;;;;;;4418312;28;657261;-75